Terminal Aerodrome Forecast
Issued by NWS

Home | Current Version | Previous Version | Text Only | Print | Product List | Glossary On
Versions: 1 2 3 4 5 6 7 8 9 10 11 12 13 14 15 16
000
FTUS43 KIWX 050530
TAFSBN
TAF
KSBN 050530Z 0506/0606 00000KT P6SM SCT016 BKN100
     FM050700 00000KT 6SM BR SCT040 BKN100
      TEMPO 0507/0509 29012KT 6SM -SHRA SCT015 BKN030
     FM051000 00000KT 3SM BR SCT010
     FM051300 20006KT P6SM SCT040=

USA.gov is the U.S. government's official web portal to all federal, state and local government web resources and services.